createdAt,value
2018-04-12T00:00:01.882Z,15.8
2018-04-12T00:00:06.190Z,15.86
2018-04-12T00:00:10.520Z,15.76
2018-04-12T00:00:14.733Z,15.86
2018-04-12T00:00:18.738Z,15.78
2018-04-12T00:00:22.735Z,15.78
2018-04-12T00:00:26.848Z,15.91
2018-04-12T00:00:31.174Z,15.86
2018-04-12T00:00:35.392Z,15.88
2018-04-12T00:00:39.760Z,15.84
2018-04-12T00:00:43.756Z,15.85
2018-04-12T00:00:47.973Z,15.85
2018-04-12T00:00:51.973Z,15.78
2018-04-12T00:00:56.294Z,15.88
2018-04-12T00:01:00.504Z,15.88
2018-04-12T00:01:04.655Z,15.88
2018-04-12T00:01:08.876Z,15.78
2018-04-12T00:01:13.096Z,15.85
2018-04-12T00:01:17.307Z,15.86
2018-04-12T00:01:21.203Z,15.91
2018-04-12T00:01:25.524Z,15.77
2018-04-12T00:01:29.739Z,15.84
2018-04-12T00:01:33.960Z,15.8
2018-04-12T00:01:38.078Z,15.88
2018-04-12T00:01:42.289Z,15.78
2018-04-12T00:01:46.396Z,15.88
2018-04-12T00:01:50.615Z,15.85
2018-04-12T00:01:54.826Z,15.85
2018-04-12T00:01:59.041Z,15.89
2018-04-12T00:02:03.246Z,15.77
2018-04-12T00:02:07.249Z,15.81
2018-04-12T00:02:11.251Z,15.81
2018-04-12T00:02:15.358Z,15.8
2018-04-12T00:02:19.469Z,15.91
2018-04-12T00:02:23.464Z,15.84
2018-04-12T00:02:27.789Z,15.86
2018-04-12T00:02:32.008Z,15.81
2018-04-12T00:02:36.326Z,15.91
2018-04-12T00:02:40.540Z,15.89
2018-04-12T00:02:44.536Z,15.8
2018-04-12T00:02:48.786Z,15.91
2018-04-12T00:02:52.681Z,15.92
2018-04-12T00:02:57.008Z,15.88
2018-04-12T00:03:01.147Z,15.76
2018-04-12T00:03:05.260Z,15.89
2018-04-12T00:03:09.475Z,15.86
2018-04-12T00:03:13.697Z,15.8
2018-04-12T00:03:18.015Z,15.85
2018-04-12T00:03:22.123Z,15.84
2018-04-12T00:03:26.232Z,15.77
2018-04-12T00:03:30.556Z,15.77
2018-04-12T00:03:34.664Z,15.86
2018-04-12T00:03:38.884Z,15.76
2018-04-12T00:03:43.096Z,15.76
2018-04-12T00:03:47.314Z,15.91
2018-04-12T00:03:51.532Z,15.88
2018-04-12T00:03:55.849Z,15.77
2018-04-12T00:04:00.180Z,15.88
2018-04-12T00:04:04.702Z,15.76
2018-04-12T00:04:08.589Z,15.74
2018-04-12T00:04:12.806Z,15.86
2018-04-12T00:04:17.025Z,15.77
2018-04-12T00:04:21.234Z,15.77
2018-04-12T00:04:25.448Z,15.85
2018-04-12T00:04:29.779Z,15.77
2018-04-12T00:04:33.998Z,15.81
2018-04-12T00:04:38.209Z,15.76
2018-04-12T00:04:42.317Z,15.76
2018-04-12T00:04:46.533Z,15.86
2018-04-12T00:04:50.642Z,15.84
2018-04-12T00:04:54.857Z,15.85
2018-04-12T00:04:58.960Z,15.89
2018-04-12T00:05:03.267Z,15.91
2018-04-12T00:05:07.589Z,15.84
2018-04-12T00:05:11.588Z,15.85
2018-04-12T00:05:15.914Z,15.76
2018-04-12T00:05:20.024Z,15.81
2018-04-12T00:05:24.132Z,15.88
2018-04-12T00:05:28.132Z,15.81
2018-04-12T00:05:32.132Z,15.85
2018-04-12T00:05:36.456Z,15.76
2018-04-12T00:05:40.679Z,15.8
2018-04-12T00:05:44.999Z,15.81
2018-04-12T00:05:49.213Z,15.8
2018-04-12T00:05:53.432Z,15.85
2018-04-12T00:05:57.641Z,15.78
2018-04-12T00:06:01.762Z,15.86
2018-04-12T00:06:05.864Z,15.73
2018-04-12T00:06:10.189Z,15.84
2018-04-12T00:06:14.511Z,15.8
2018-04-12T00:06:18.629Z,15.85
2018-04-12T00:06:22.957Z,15.71
2018-04-12T00:06:27.065Z,15.85
2018-04-12T00:06:31.281Z,15.78
2018-04-12T00:06:35.609Z,15.77
2018-04-12T00:06:39.715Z,15.78
2018-04-12T00:06:43.820Z,15.8
2018-04-12T00:06:47.818Z,15.8
2018-04-12T00:06:51.921Z,15.81
2018-04-12T00:06:55.921Z,15.84
2018-04-12T00:07:00.023Z,15.84
2018-04-12T00:07:03.963Z,15.88
2018-04-12T00:07:08.074Z,15.8
2018-04-12T00:07:12.388Z,15.76
2018-04-12T00:07:16.500Z,15.85
2018-04-12T00:07:20.611Z,15.77
2018-04-12T00:07:24.610Z,15.88
2018-04-12T00:07:28.718Z,15.78
2018-04-12T00:07:33.040Z,15.78
2018-04-12T00:07:37.277Z,15.73
2018-04-12T00:07:41.592Z,15.78
2018-04-12T00:07:45.805Z,15.86
2018-04-12T00:07:50.123Z,15.78
2018-04-12T00:07:54.441Z,15.84
2018-04-12T00:07:58.554Z,15.74
2018-04-12T00:08:02.748Z,15.86
2018-04-12T00:08:06.961Z,15.8
2018-04-12T00:08:11.066Z,15.8
2018-04-12T00:08:15.222Z,15.84
2018-04-12T00:08:19.569Z,15.78
2018-04-12T00:08:23.565Z,15.8
2018-04-12T00:08:27.898Z,15.71
2018-04-12T00:08:32.113Z,15.77
2018-04-12T00:08:36.327Z,15.84
2018-04-12T00:08:40.436Z,15.84
2018-04-12T00:08:44.849Z,15.81
2018-04-12T00:08:48.950Z,15.86
2018-04-12T00:08:53.059Z,15.8
2018-04-12T00:08:57.270Z,15.78
2018-04-12T00:09:01.265Z,15.81
2018-04-12T00:09:05.253Z,15.85
2018-04-12T00:09:09.369Z,15.84
2018-04-12T00:09:13.584Z,15.84
2018-04-12T00:09:17.587Z,15.77
2018-04-12T00:09:21.797Z,15.77
2018-04-12T00:09:26.009Z,15.89
2018-04-12T00:09:30.221Z,15.85
2018-04-12T00:09:34.327Z,15.73
2018-04-12T00:09:38.539Z,15.76
2018-04-12T00:09:42.745Z,15.77
2018-04-12T00:09:46.949Z,15.86
2018-04-12T00:09:51.163Z,15.88
2018-04-12T00:09:55.262Z,15.8
2018-04-12T00:09:59.599Z,15.8
2018-04-12T00:10:03.925Z,15.84
2018-04-12T00:10:08.258Z,15.86
2018-04-12T00:10:12.468Z,15.8
2018-04-12T00:10:16.798Z,15.84
2018-04-12T00:10:20.905Z,15.91
2018-04-12T00:10:25.009Z,15.81
2018-04-12T00:10:29.327Z,15.76
2018-04-12T00:10:33.678Z,15.84
2018-04-12T00:10:37.889Z,15.8
2018-04-12T00:10:42.092Z,15.76
2018-04-12T00:10:46.422Z,15.77
2018-04-12T00:10:50.427Z,15.74
2018-04-12T00:10:54.531Z,15.84
2018-04-12T00:10:58.754Z,15.74
2018-04-12T00:11:02.963Z,15.86
2018-04-12T00:11:07.065Z,15.78
2018-04-12T00:11:11.386Z,15.77
2018-04-12T00:11:15.487Z,15.77
2018-04-12T00:11:19.586Z,15.77
2018-04-12T00:11:23.799Z,15.85
2018-04-12T00:11:28.014Z,15.8
2018-04-12T00:11:31.804Z,15.77
2018-04-12T00:11:35.913Z,15.74
2018-04-12T00:11:40.232Z,15.78
2018-04-12T00:11:44.341Z,15.88
2018-04-12T00:11:48.562Z,15.81
2018-04-12T00:11:52.668Z,15.8
2018-04-12T00:11:56.886Z,15.8
2018-04-12T00:12:01.199Z,15.86
2018-04-12T00:12:05.404Z,15.85
2018-04-12T00:12:09.723Z,15.74
2018-04-12T00:12:14.055Z,15.8
2018-04-12T00:12:18.383Z,15.76
2018-04-12T00:12:22.698Z,15.77
2018-04-12T00:12:27.018Z,15.81
2018-04-12T00:12:31.234Z,15.78
2018-04-12T00:12:35.339Z,15.81
2018-04-12T00:12:39.546Z,15.8
2018-04-12T00:12:43.751Z,15.78
2018-04-12T00:12:47.969Z,15.8
2018-04-12T00:12:52.180Z,15.85
2018-04-12T00:12:56.283Z,15.77
2018-04-12T00:13:00.489Z,15.8
2018-04-12T00:13:04.378Z,15.77
2018-04-12T00:13:08.370Z,15.8
2018-04-12T00:13:12.582Z,15.77
2018-04-12T00:13:16.899Z,15.73
2018-04-12T00:13:20.997Z,15.78
2018-04-12T00:13:25.313Z,15.84
2018-04-12T00:13:29.639Z,15.78
2018-04-12T00:13:33.905Z,15.78
2018-04-12T00:13:38.233Z,15.81
2018-04-12T00:13:42.443Z,15.78
2018-04-12T00:13:46.650Z,15.81
2018-04-12T00:13:50.769Z,15.8
2018-04-12T00:13:54.870Z,15.84
2018-04-12T00:13:59.071Z,15.78
2018-04-12T00:14:03.337Z,15.76
2018-04-12T00:14:07.651Z,15.89
2018-04-12T00:14:11.868Z,15.78
2018-04-12T00:14:16.193Z,15.77
2018-04-12T00:14:20.512Z,15.73
2018-04-12T00:14:24.727Z,15.85
2018-04-12T00:14:28.836Z,15.85
2018-04-12T00:14:33.157Z,15.86
2018-04-12T00:14:37.266Z,15.78
2018-04-12T00:14:41.603Z,15.86
2018-04-12T00:14:45.926Z,15.91
2018-04-12T00:14:50.135Z,15.77
2018-04-12T00:14:54.345Z,15.86
2018-04-12T00:14:58.455Z,15.76
2018-04-12T00:15:02.671Z,15.8
2018-04-12T00:15:06.662Z,15.85
2018-04-12T00:15:10.870Z,15.91
2018-04-12T00:15:15.196Z,15.86
2018-04-12T00:15:19.404Z,15.86
2018-04-12T00:15:23.612Z,15.86
2018-04-12T00:15:27.823Z,15.73
2018-04-12T00:15:32.033Z,15.78
2018-04-12T00:15:36.249Z,15.8
2018-04-12T00:15:40.562Z,15.86
2018-04-12T00:15:44.777Z,15.89
2018-04-12T00:15:49.095Z,15.89
2018-04-12T00:15:53.300Z,15.85
2018-04-12T00:15:57.520Z,15.88
2018-04-12T00:16:01.735Z,15.85
2018-04-12T00:16:05.771Z,15.76
2018-04-12T00:16:09.986Z,15.88
2018-04-12T00:16:14.193Z,15.84
2018-04-12T00:16:18.519Z,15.81
2018-04-12T00:16:22.626Z,15.81
2018-04-12T00:16:26.840Z,15.77
2018-04-12T00:16:30.955Z,15.85
2018-04-12T00:16:35.166Z,15.77
2018-04-12T00:16:39.267Z,15.88
2018-04-12T00:16:43.368Z,15.8
2018-04-12T00:16:47.582Z,15.81
2018-04-12T00:16:51.697Z,15.81
2018-04-12T00:16:56.012Z,15.81
2018-04-12T00:17:00.223Z,15.78
2018-04-12T00:17:04.217Z,15.85
2018-04-12T00:17:08.544Z,15.81
2018-04-12T00:17:12.648Z,15.84
2018-04-12T00:17:16.859Z,15.78
2018-04-12T00:17:20.957Z,15.88
2018-04-12T00:17:25.286Z,15.78
2018-04-12T00:17:29.607Z,15.85
2018-04-12T00:17:33.715Z,15.8
2018-04-12T00:17:38.034Z,15.88
2018-04-12T00:17:42.273Z,15.84
2018-04-12T00:17:46.598Z,15.8
2018-04-12T00:17:50.806Z,15.81
2018-04-12T00:17:55.116Z,15.86
2018-04-12T00:17:59.223Z,15.86
2018-04-12T00:18:03.217Z,15.85
2018-04-12T00:18:07.540Z,15.91
2018-04-12T00:18:11.760Z,15.85
2018-04-12T00:18:16.078Z,15.81
2018-04-12T00:18:20.183Z,15.84
2018-04-12T00:18:24.179Z,15.86
2018-04-12T00:18:28.492Z,15.91
2018-04-12T00:18:32.593Z,15.84
2018-04-12T00:18:36.920Z,15.91
2018-04-12T00:18:41.148Z,15.85
2018-04-12T00:18:45.463Z,15.88
2018-04-12T00:18:49.782Z,15.74
2018-04-12T00:18:53.990Z,15.86
2018-04-12T00:18:58.098Z,15.88
2018-04-12T00:19:02.205Z,15.78
2018-04-12T00:19:06.521Z,15.91
2018-04-12T00:19:10.734Z,15.85
2018-04-12T00:19:15.047Z,15.89
2018-04-12T00:19:19.368Z,15.74
2018-04-12T00:19:23.576Z,15.88
2018-04-12T00:19:27.754Z,15.86
2018-04-12T00:19:32.069Z,15.91
2018-04-12T00:19:36.387Z,15.85
2018-04-12T00:19:40.701Z,15.92
2018-04-12T00:19:45.017Z,15.85
2018-04-12T00:19:49.333Z,15.78
2018-04-12T00:19:53.435Z,15.77
2018-04-12T00:19:57.756Z,15.8
2018-04-12T00:20:01.972Z,15.91
2018-04-12T00:20:06.284Z,15.86
2018-04-12T00:20:10.496Z,15.86
2018-04-12T00:20:14.705Z,15.84
2018-04-12T00:20:18.918Z,15.91
2018-04-12T00:20:23.119Z,15.84
2018-04-12T00:20:27.332Z,15.88
2018-04-12T00:20:31.540Z,15.86
2018-04-12T00:20:35.441Z,15.89
2018-04-12T00:20:39.771Z,15.77
2018-04-12T00:20:43.985Z,15.84
2018-04-12T00:20:48.308Z,15.76
2018-04-12T00:20:52.411Z,15.8
2018-04-12T00:20:56.730Z,15.81
2018-04-12T00:21:00.949Z,15.86
2018-04-12T00:21:04.828Z,15.88
2018-04-12T00:21:09.146Z,15.78
2018-04-12T00:21:13.354Z,15.89
2018-04-12T00:21:17.457Z,15.77
2018-04-12T00:21:21.772Z,15.77
2018-04-12T00:21:25.986Z,15.88
2018-04-12T00:21:30.201Z,15.8
2018-04-12T00:21:34.410Z,15.91
2018-04-12T00:21:38.617Z,15.77
2018-04-12T00:21:42.871Z,15.77
2018-04-12T00:21:46.971Z,15.8
2018-04-12T00:21:51.286Z,15.76
2018-04-12T00:21:55.611Z,15.76
2018-04-12T00:21:59.716Z,15.77
2018-04-12T00:22:04.100Z,15.86
2018-04-12T00:22:08.206Z,15.77
2018-04-12T00:22:12.426Z,15.77
2018-04-12T00:22:16.645Z,15.74
2018-04-12T00:22:20.864Z,15.71
2018-04-12T00:22:25.070Z,15.84
2018-04-12T00:22:29.293Z,15.77
2018-04-12T00:22:33.502Z,15.84
2018-04-12T00:22:37.826Z,15.78
2018-04-12T00:22:42.030Z,15.73
2018-04-12T00:22:46.354Z,15.73
2018-04-12T00:22:50.567Z,15.85
2018-04-12T00:22:54.920Z,15.8
2018-04-12T00:22:59.236Z,15.77
2018-04-12T00:23:03.383Z,15.84
2018-04-12T00:23:07.708Z,15.77
2018-04-12T00:23:11.918Z,15.77
2018-04-12T00:23:16.233Z,15.76
2018-04-12T00:23:20.449Z,15.77
2018-04-12T00:23:24.773Z,15.85
2018-04-12T00:23:29.088Z,15.78
2018-04-12T00:23:33.408Z,15.85
2018-04-12T00:23:37.726Z,15.84
2018-04-12T00:23:42.033Z,15.78
2018-04-12T00:23:46.249Z,15.74
2018-04-12T00:23:50.454Z,15.85
2018-04-12T00:23:54.669Z,15.76
2018-04-12T00:23:58.777Z,15.78
2018-04-12T00:24:02.887Z,15.77
2018-04-12T00:24:06.773Z,15.78
2018-04-12T00:24:10.876Z,15.77
2018-04-12T00:24:15.091Z,15.78
2018-04-12T00:24:19.296Z,15.78
2018-04-12T00:24:23.508Z,15.74
2018-04-12T00:24:27.730Z,15.81
2018-04-12T00:24:31.936Z,15.81
2018-04-12T00:24:36.144Z,15.78
2018-04-12T00:24:40.351Z,15.78
2018-04-12T00:24:44.662Z,15.78
2018-04-12T00:24:48.991Z,15.81
2018-04-12T00:24:53.326Z,15.8
2018-04-12T00:24:57.321Z,15.77
2018-04-12T00:25:01.539Z,15.8
2018-04-12T00:25:05.439Z,15.8
2018-04-12T00:25:09.445Z,15.8
2018-04-12T00:25:13.552Z,15.78
2018-04-12T00:25:17.773Z,15.78
2018-04-12T00:25:22.093Z,15.81
2018-04-12T00:25:26.195Z,15.84
2018-04-12T00:25:30.437Z,15.8
2018-04-12T00:25:34.754Z,15.76
2018-04-12T00:25:38.971Z,15.76
2018-04-12T00:25:43.190Z,15.81
2018-04-12T00:25:47.398Z,15.81
2018-04-12T00:25:51.716Z,15.76
2018-04-12T00:25:56.032Z,15.8
2018-04-12T00:26:00.356Z,15.77
2018-04-12T00:26:04.467Z,15.78
2018-04-12T00:26:08.459Z,15.8
2018-04-12T00:26:12.707Z,15.81
2018-04-12T00:26:17.074Z,15.78
2018-04-12T00:26:21.071Z,15.8
2018-04-12T00:26:25.183Z,15.78
2018-04-12T00:26:29.523Z,15.76
2018-04-12T00:26:33.841Z,15.77
2018-04-12T00:26:38.054Z,15.77
2018-04-12T00:26:42.157Z,15.76
2018-04-12T00:26:46.405Z,15.81
2018-04-12T00:26:50.611Z,15.76
2018-04-12T00:26:54.927Z,15.68
2018-04-12T00:26:59.146Z,15.76
2018-04-12T00:27:03.477Z,15.77
2018-04-12T00:27:07.581Z,15.67
2018-04-12T00:27:11.680Z,15.78
2018-04-12T00:27:16.000Z,15.67
2018-04-12T00:27:20.319Z,15.67
2018-04-12T00:27:24.316Z,15.68
2018-04-12T00:27:28.576Z,15.73
2018-04-12T00:27:32.678Z,15.76
2018-04-12T00:27:36.683Z,15.76
2018-04-12T00:27:41.001Z,15.7
2018-04-12T00:27:45.320Z,15.76
2018-04-12T00:27:49.644Z,15.68
2018-04-12T00:27:53.749Z,15.74
2018-04-12T00:27:58.063Z,15.7
2018-04-12T00:28:02.321Z,15.68
2018-04-12T00:28:06.425Z,15.7
2018-04-12T00:28:10.635Z,15.73
2018-04-12T00:28:14.738Z,15.71
2018-04-12T00:28:19.061Z,15.7
2018-04-12T00:28:23.291Z,15.71
2018-04-12T00:28:27.609Z,15.7
2018-04-12T00:28:31.603Z,15.7
2018-04-12T00:28:35.699Z,15.68
2018-04-12T00:28:39.808Z,15.67
2018-04-12T00:28:44.138Z,15.71
2018-04-12T00:28:48.129Z,15.68
2018-04-12T00:28:52.334Z,15.77
2018-04-12T00:28:56.431Z,15.7
2018-04-12T00:29:00.753Z,15.71
2018-04-12T00:29:05.050Z,15.7
2018-04-12T00:29:09.266Z,15.68
2018-04-12T00:29:13.474Z,15.71
2018-04-12T00:29:17.789Z,15.71
2018-04-12T00:29:22.108Z,15.67
2018-04-12T00:29:26.341Z,15.73
2018-04-12T00:29:30.332Z,15.73
2018-04-12T00:29:34.647Z,15.74
2018-04-12T00:29:38.963Z,15.77
2018-04-12T00:29:42.968Z,15.66
2018-04-12T00:29:47.067Z,15.7
2018-04-12T00:29:51.179Z,15.7
2018-04-12T00:29:55.383Z,15.71
2018-04-12T00:29:59.591Z,15.76
2018-04-12T00:30:03.900Z,15.74
2018-04-12T00:30:08.114Z,15.68
2018-04-12T00:30:12.325Z,15.73
2018-04-12T00:30:16.646Z,15.7
2018-04-12T00:30:21.019Z,15.66
2018-04-12T00:30:25.141Z,15.7
2018-04-12T00:30:29.471Z,15.71
2018-04-12T00:30:33.687Z,15.7
2018-04-12T00:30:38.003Z,15.68
2018-04-12T00:30:42.106Z,15.71
2018-04-12T00:30:46.433Z,15.67
2018-04-12T00:30:50.648Z,15.74
2018-04-12T00:30:54.856Z,15.7
2018-04-12T00:30:58.963Z,15.68
2018-04-12T00:31:03.132Z,15.7
2018-04-12T00:31:07.231Z,15.73
2018-04-12T00:31:11.448Z,15.64
2018-04-12T00:31:15.658Z,15.71
2018-04-12T00:31:19.864Z,15.67
2018-04-12T00:31:24.195Z,15.68
2018-04-12T00:31:28.402Z,15.67
2018-04-12T00:31:32.505Z,15.74
2018-04-12T00:31:36.615Z,15.77
2018-04-12T00:31:40.820Z,15.7
2018-04-12T00:31:45.133Z,15.6
2018-04-12T00:31:49.347Z,15.6
2018-04-12T00:31:53.556Z,15.66
2018-04-12T00:31:57.768Z,15.6
2018-04-12T00:32:01.866Z,15.59
2018-04-12T00:32:05.858Z,15.67
2018-04-12T00:32:10.173Z,15.62
2018-04-12T00:32:14.058Z,15.62
2018-04-12T00:32:18.377Z,15.67
2018-04-12T00:32:22.696Z,15.62
2018-04-12T00:32:26.907Z,15.59
2018-04-12T00:32:31.017Z,15.62
2018-04-12T00:32:35.335Z,15.62
2018-04-12T00:32:39.539Z,15.64
2018-04-12T00:32:43.852Z,15.6
2018-04-12T00:32:48.171Z,15.6
2018-04-12T00:32:52.496Z,15.58
2018-04-12T00:32:56.709Z,15.64
2018-04-12T00:33:01.025Z,15.59
2018-04-12T00:33:05.115Z,15.64
2018-04-12T00:33:09.218Z,15.62
2018-04-12T00:33:13.430Z,15.56
2018-04-12T00:33:17.535Z,15.56
2018-04-12T00:33:21.755Z,15.64
2018-04-12T00:33:26.070Z,15.6
2018-04-12T00:33:30.081Z,15.64
2018-04-12T00:33:34.288Z,15.66
2018-04-12T00:33:38.609Z,15.59
2018-04-12T00:33:42.819Z,15.59
2018-04-12T00:33:47.032Z,15.64
2018-04-12T00:33:51.243Z,15.64
2018-04-12T00:33:55.560Z,15.62
2018-04-12T00:33:59.766Z,15.6
2018-04-12T00:34:04.222Z,15.64
2018-04-12T00:34:08.430Z,15.62
2018-04-12T00:34:12.639Z,15.6
2018-04-12T00:34:16.954Z,15.62
2018-04-12T00:34:21.165Z,15.6
2018-04-12T00:34:25.486Z,15.52
2018-04-12T00:34:29.596Z,15.6
2018-04-12T00:34:33.809Z,15.62
2018-04-12T00:34:38.131Z,15.64
2018-04-12T00:34:42.337Z,15.6
2018-04-12T00:34:46.657Z,15.62
2018-04-12T00:34:50.863Z,15.62
2018-04-12T00:34:55.186Z,15.58
2018-04-12T00:34:59.505Z,15.62
2018-04-12T00:35:03.499Z,15.62
2018-04-12T00:35:07.382Z,15.59
2018-04-12T00:35:11.587Z,15.6
2018-04-12T00:35:15.801Z,15.6
2018-04-12T00:35:19.913Z,15.64
2018-04-12T00:35:24.016Z,15.6
2018-04-12T00:35:28.231Z,15.62
2018-04-12T00:35:32.441Z,15.56
2018-04-12T00:35:36.657Z,15.6
2018-04-12T00:35:40.973Z,15.59
2018-04-12T00:35:45.286Z,15.59
2018-04-12T00:35:49.494Z,15.55
2018-04-12T00:35:53.856Z,15.6
2018-04-12T00:35:58.066Z,15.64
2018-04-12T00:36:02.594Z,15.56
2018-04-12T00:36:06.701Z,15.58
2018-04-12T00:36:10.813Z,15.55
2018-04-12T00:36:15.020Z,15.51
2018-04-12T00:36:19.117Z,15.52
2018-04-12T00:36:23.434Z,15.6
2018-04-12T00:36:27.647Z,15.6
2018-04-12T00:36:31.965Z,15.49
2018-04-12T00:36:36.284Z,15.59
2018-04-12T00:36:40.497Z,15.56
2018-04-12T00:36:44.711Z,15.59
2018-04-12T00:36:49.024Z,15.62
2018-04-12T00:36:53.336Z,15.64
2018-04-12T00:36:57.543Z,15.56
2018-04-12T00:37:01.855Z,15.64
2018-04-12T00:37:06.010Z,15.59
2018-04-12T00:37:10.123Z,15.59
2018-04-12T00:37:14.342Z,15.62
2018-04-12T00:37:18.342Z,15.56
2018-04-12T00:37:22.465Z,15.56
2018-04-12T00:37:26.791Z,15.6
2018-04-12T00:37:31.003Z,15.56
2018-04-12T00:37:35.319Z,15.58
2018-04-12T00:37:39.536Z,15.59
2018-04-12T00:37:43.741Z,15.58
2018-04-12T00:37:47.948Z,15.59
2018-04-12T00:37:52.261Z,15.59
2018-04-12T00:37:56.575Z,15.55
2018-04-12T00:38:00.890Z,15.56
2018-04-12T00:38:05.212Z,15.55
2018-04-12T00:38:09.422Z,15.52
2018-04-12T00:38:13.637Z,15.53
2018-04-12T00:38:17.955Z,15.58
2018-04-12T00:38:22.269Z,15.58
2018-04-12T00:38:26.477Z,15.58
2018-04-12T00:38:30.850Z,15.53
2018-04-12T00:38:35.170Z,15.58
2018-04-12T00:38:39.491Z,15.58
2018-04-12T00:38:43.693Z,15.53
2018-04-12T00:38:48.029Z,15.52
2018-04-12T00:38:52.653Z,15.59
2018-04-12T00:38:56.886Z,15.6
2018-04-12T00:39:01.204Z,15.59
2018-04-12T00:39:05.419Z,15.55
2018-04-12T00:39:09.522Z,15.52
2018-04-12T00:39:13.743Z,15.64
2018-04-12T00:39:17.843Z,15.52
2018-04-12T00:39:22.056Z,15.62
2018-04-12T00:39:26.443Z,15.68
2018-04-12T00:39:30.550Z,15.62
2018-04-12T00:39:34.544Z,15.6
2018-04-12T00:39:38.757Z,15.52
2018-04-12T00:39:42.969Z,15.59
2018-04-12T00:39:47.281Z,15.56
2018-04-12T00:39:51.497Z,15.58
2018-04-12T00:39:55.825Z,15.55
2018-04-12T00:39:59.922Z,15.58
2018-04-12T00:40:03.967Z,15.6
2018-04-12T00:40:08.070Z,15.52
2018-04-12T00:40:12.173Z,15.62
2018-04-12T00:40:16.500Z,15.53
2018-04-12T00:40:20.618Z,15.59
2018-04-12T00:40:24.935Z,15.58
2018-04-12T00:40:29.264Z,15.6
2018-04-12T00:40:33.480Z,15.64
2018-04-12T00:40:37.697Z,15.55
2018-04-12T00:40:41.908Z,15.58
2018-04-12T00:40:46.115Z,15.58
2018-04-12T00:40:50.221Z,15.55
2018-04-12T00:40:54.548Z,15.6
2018-04-12T00:40:58.862Z,15.53
2018-04-12T00:41:02.968Z,15.55
2018-04-12T00:41:06.970Z,15.62
2018-04-12T00:41:11.294Z,15.52
2018-04-12T00:41:15.499Z,15.53
2018-04-12T00:41:19.819Z,15.59
2018-04-12T00:41:23.930Z,15.53
2018-04-12T00:41:28.143Z,15.58
2018-04-12T00:41:32.349Z,15.62
2018-04-12T00:41:36.455Z,15.59
2018-04-12T00:41:40.671Z,15.53
2018-04-12T00:41:44.881Z,15.64
2018-04-12T00:41:49.094Z,15.58
2018-04-12T00:41:53.415Z,15.58
2018-04-12T00:41:57.522Z,15.58
2018-04-12T00:42:01.846Z,15.59
2018-04-12T00:42:06.203Z,15.53
2018-04-12T00:42:10.413Z,15.59
2018-04-12T00:42:14.524Z,15.53
2018-04-12T00:42:18.625Z,15.64
2018-04-12T00:42:22.726Z,15.59
2018-04-12T00:42:27.052Z,15.64
2018-04-12T00:42:31.258Z,15.53
2018-04-12T00:42:35.472Z,15.55
2018-04-12T00:42:39.683Z,15.6
2018-04-12T00:42:43.686Z,15.59
2018-04-12T00:42:47.791Z,15.59
2018-04-12T00:42:52.002Z,15.59
2018-04-12T00:42:56.211Z,15.53
2018-04-12T00:43:00.525Z,15.51
2018-04-12T00:43:04.626Z,15.55
2018-04-12T00:43:08.723Z,15.59
2018-04-12T00:43:13.035Z,15.55
2018-04-12T00:43:17.256Z,15.55
2018-04-12T00:43:21.576Z,15.52
2018-04-12T00:43:25.570Z,15.56
2018-04-12T00:43:29.777Z,15.6
2018-04-12T00:43:34.097Z,15.64
2018-04-12T00:43:38.302Z,15.58
2018-04-12T00:43:42.621Z,15.53
2018-04-12T00:43:46.836Z,15.52
2018-04-12T00:43:51.154Z,15.59
2018-04-12T00:43:55.361Z,15.52
2018-04-12T00:43:59.680Z,15.59
2018-04-12T00:44:04.087Z,15.55
2018-04-12T00:44:08.080Z,15.55
2018-04-12T00:44:12.301Z,15.58
2018-04-12T00:44:16.628Z,15.55
2018-04-12T00:44:20.946Z,15.52
2018-04-12T00:44:24.944Z,15.59
2018-04-12T00:44:28.941Z,15.59
2018-04-12T00:44:33.058Z,15.49
2018-04-12T00:44:37.267Z,15.52
2018-04-12T00:44:41.476Z,15.49
2018-04-12T00:44:45.801Z,15.52
2018-04-12T00:44:50.023Z,15.49
2018-04-12T00:44:54.233Z,15.52
2018-04-12T00:44:58.434Z,15.52
2018-04-12T00:45:02.751Z,15.51
2018-04-12T00:45:06.641Z,15.49
2018-04-12T00:45:10.859Z,15.51
2018-04-12T00:45:15.178Z,15.51
2018-04-12T00:45:19.501Z,15.51
2018-04-12T00:45:23.859Z,15.53
2018-04-12T00:45:28.069Z,15.49
2018-04-12T00:45:32.277Z,15.51
2018-04-12T00:45:36.488Z,15.55
2018-04-12T00:45:40.810Z,15.53
2018-04-12T00:45:45.130Z,15.52
2018-04-12T00:46:25.654Z,15.48
2018-04-12T00:46:29.759Z,15.53
2018-04-12T00:46:34.070Z,15.49
2018-04-12T00:46:38.286Z,15.52
2018-04-12T00:46:42.492Z,15.52
2018-04-12T00:46:46.588Z,15.51
2018-04-12T00:46:50.687Z,15.51
2018-04-12T00:46:54.898Z,15.51
2018-04-12T00:46:59.208Z,15.49
2018-04-12T00:47:03.722Z,15.49
2018-04-12T00:47:07.821Z,15.46
2018-04-12T00:47:12.138Z,15.49
2018-04-12T00:47:16.358Z,15.52
2018-04-12T00:47:20.572Z,15.48
2018-04-12T00:47:24.889Z,15.49
2018-04-12T00:47:28.988Z,15.44
2018-04-12T00:47:33.208Z,15.48
2018-04-12T00:47:37.525Z,15.48
2018-04-12T00:47:41.732Z,15.48
2018-04-12T00:47:46.063Z,15.51
2018-04-12T00:47:50.166Z,15.49
2018-04-12T00:47:54.371Z,15.51
2018-04-12T00:47:58.581Z,15.52
2018-04-12T00:48:02.682Z,15.43
2018-04-12T00:48:06.791Z,15.48
2018-04-12T00:48:10.902Z,15.49
2018-04-12T00:48:15.219Z,15.52
2018-04-12T00:48:19.537Z,15.51
2018-04-12T00:48:23.744Z,15.52
2018-04-12T00:48:27.955Z,15.49
2018-04-12T00:48:32.272Z,15.46
2018-04-12T00:48:36.380Z,15.48
2018-04-12T00:48:40.698Z,15.51
2018-04-12T00:48:45.018Z,15.48
2018-04-12T00:48:49.333Z,15.49
2018-04-12T00:48:53.652Z,15.52
2018-04-12T00:48:57.750Z,15.48
2018-04-12T00:49:01.973Z,15.49
2018-04-12T00:49:06.184Z,15.43
2018-04-12T00:49:10.301Z,15.49
2018-04-12T00:49:14.399Z,15.49
2018-04-12T00:49:18.668Z,15.49
2018-04-12T00:49:22.908Z,15.52
2018-04-12T00:49:27.206Z,15.46
2018-04-12T00:49:31.557Z,15.51
2018-04-12T00:49:35.560Z,15.52
2018-04-12T00:49:39.877Z,15.52
2018-04-12T00:49:44.196Z,15.49
2018-04-12T00:49:48.080Z,15.49
2018-04-12T00:49:52.400Z,15.51
2018-04-12T00:49:56.501Z,15.51
2018-04-12T00:50:00.817Z,15.49
2018-04-12T00:50:05.084Z,15.49
2018-04-12T00:50:09.188Z,15.46
2018-04-12T00:50:13.404Z,15.51
2018-04-12T00:50:17.510Z,15.46
2018-04-12T00:50:21.731Z,15.49
2018-04-12T00:50:25.937Z,15.51
2018-04-12T00:50:30.147Z,15.49
2018-04-12T00:50:34.468Z,15.51
2018-04-12T00:50:38.674Z,15.51
2018-04-12T00:50:42.887Z,15.49
2018-04-12T00:50:47.205Z,15.43
2018-04-12T00:50:51.416Z,15.46
2018-04-12T00:50:55.730Z,15.46
2018-04-12T00:51:00.041Z,15.51
2018-04-12T00:51:04.510Z,15.48
2018-04-12T00:51:08.721Z,15.49
2018-04-12T00:51:12.837Z,15.44
2018-04-12T00:51:17.163Z,15.52
2018-04-12T00:51:21.366Z,15.44
2018-04-12T00:51:25.472Z,15.44
2018-04-12T00:51:29.680Z,15.4
2018-04-12T00:51:33.786Z,15.51
2018-04-12T00:51:37.817Z,15.44
2018-04-12T00:51:42.028Z,15.43
2018-04-12T00:51:46.127Z,15.49
2018-04-12T00:51:50.445Z,15.48
2018-04-12T00:51:54.782Z,15.43
2018-04-12T00:51:58.983Z,15.53
2018-04-12T00:52:03.437Z,15.44
2018-04-12T00:52:07.539Z,15.49
2018-04-12T00:52:11.641Z,15.46
2018-04-12T00:52:15.848Z,15.49
2018-04-12T00:52:20.051Z,15.51
2018-04-12T00:52:24.152Z,15.48
2018-04-12T00:52:28.405Z,15.44
2018-04-12T00:52:32.610Z,15.4
2018-04-12T00:52:36.941Z,15.43
2018-04-12T00:52:41.183Z,15.52
2018-04-12T00:52:45.297Z,15.4
2018-04-12T00:52:49.503Z,15.43
2018-04-12T00:52:53.821Z,15.51
2018-04-12T00:52:58.026Z,15.46
2018-04-12T00:53:02.235Z,15.4
2018-04-12T00:53:06.454Z,15.49
2018-04-12T00:53:10.662Z,15.43
2018-04-12T00:53:14.873Z,15.43
2018-04-12T00:53:18.866Z,15.44
2018-04-12T00:53:23.096Z,15.46
2018-04-12T00:53:27.301Z,15.46
2018-04-12T00:53:31.618Z,15.38
2018-04-12T00:53:35.714Z,15.43
2018-04-12T00:53:40.035Z,15.51
2018-04-12T00:53:44.248Z,15.51
2018-04-12T00:53:48.354Z,15.43
2018-04-12T00:53:52.572Z,15.41
2018-04-12T00:53:56.784Z,15.51
2018-04-12T00:54:01.096Z,15.52
2018-04-12T00:54:05.412Z,15.51
2018-04-12T00:54:09.623Z,15.53
2018-04-12T00:54:13.732Z,15.4
2018-04-12T00:54:17.940Z,15.48
2018-04-12T00:54:22.150Z,15.38
2018-04-12T00:54:26.253Z,15.46
2018-04-12T00:54:30.471Z,15.38
2018-04-12T00:54:34.569Z,15.41
2018-04-12T00:54:38.785Z,15.46
2018-04-12T00:54:43.099Z,15.41
2018-04-12T00:54:47.414Z,15.41
2018-04-12T00:54:51.621Z,15.48
2018-04-12T00:54:55.944Z,15.35
2018-04-12T00:55:00.270Z,15.43